Time;durP1;ratioP1;P1;durP2;ratioP2;P2;SDS_P1;SDS_P2;PMS_P1;PMS_P2;Temp;Humidity;BMP_temperature;BMP_pressure;BME280_temperature;BME280_humidity;BME280_pressure;Samples;Min_cycle;Max_cycle;Signal;HPM_P1;HPM_P2
2023/09/11 00:01:14;;;;;;;0.60;0.60;;;;;;;17.41;100.00;100008.72;4991555;28;20057;-84
2023/09/11 00:03:39;;;;;;;1.95;1.27;;;;;;;17.49;100.00;100018.28;4971387;28;20035;-85
2023/09/11 00:06:05;;;;;;;1.25;1.15;;;;;;;17.44;100.00;100002.13;4981046;28;20039;-85
2023/09/11 00:08:31;;;;;;;0.60;0.60;;;;;;;17.41;100.00;100011.50;4979606;28;20407;-85
2023/09/11 00:10:57;;;;;;;1.05;1.00;;;;;;;17.32;100.00;100008.81;4981868;28;20074;-85
2023/09/11 00:13:23;;;;;;;0.40;0.40;;;;;;;17.28;100.00;100002.63;4992124;28;20453;-86
2023/09/11 00:15:49;;;;;;;0.55;0.55;;;;;;;17.21;100.00;100000.22;4982761;28;20030;-85
2023/09/11 00:18:14;;;;;;;0.30;0.30;;;;;;;17.20;100.00;99995.84;4985296;28;20046;-85
2023/09/11 00:20:40;;;;;;;0.25;0.25;;;;;;;17.14;100.00;100006.19;4992650;28;20061;-85
2023/09/11 00:23:08;;;;;;;0.75;0.75;;;;;;;17.10;100.00;100000.03;4992332;28;20541;-85
2023/09/11 00:25:34;;;;;;;1.73;1.30;;;;;;;17.06;100.00;99988.22;4993157;28;20050;-85
2023/09/11 00:28:00;;;;;;;0.95;0.85;;;;;;;17.00;100.00;99982.50;4987335;28;20069;-85
2023/09/11 00:30:25;;;;;;;1.13;1.05;;;;;;;17.00;100.00;99990.13;4992630;28;20498;-85
2023/09/11 00:32:51;;;;;;;0.63;0.63;;;;;;;17.00;100.00;99984.53;4975947;28;20050;-87
2023/09/11 00:35:16;;;;;;;0.80;0.77;;;;;;;16.91;100.00;99974.19;4991744;28;20042;-86
2023/09/11 00:37:42;;;;;;;1.30;1.15;;;;;;;16.95;100.00;99979.59;4984119;28;20030;-86
2023/09/11 00:40:08;;;;;;;0.50;0.50;;;;;;;16.86;100.00;99977.69;4992928;28;20049;-86
2023/09/11 00:42:33;;;;;;;2.05;1.25;;;;;;;16.88;100.00;99982.78;4995836;28;20246;-86
2023/09/11 00:44:59;;;;;;;1.30;1.17;;;;;;;16.75;100.00;99974.66;4974931;28;20131;-86
2023/09/11 00:47:25;;;;;;;2.08;1.35;;;;;;;16.72;100.00;99973.59;4992651;28;20108;-86
2023/09/11 00:49:52;;;;;;;1.10;1.02;;;;;;;16.73;100.00;99969.56;4966501;28;20058;-86
2023/09/11 00:52:17;;;;;;;0.98;0.80;;;;;;;16.64;100.00;99961.22;4972768;28;20070;-86
2023/09/11 00:54:43;;;;;;;2.30;0.75;;;;;;;16.74;100.00;99973.88;4992052;28;20478;-86
2023/09/11 00:57:08;;;;;;;1.10;1.00;;;;;;;16.75;100.00;99978.22;4992013;28;20051;-86
2023/09/11 00:59:34;;;;;;;0.95;0.85;;;;;;;16.66;100.00;99969.91;4984900;28;20410;-86
2023/09/11 01:02:00;;;;;;;0.55;0.55;;;;;;;16.63;100.00;99976.47;4990469;28;20034;-86
2023/09/11 01:04:26;;;;;;;3.35;1.65;;;;;;;16.59;100.00;99975.09;4973144;28;20065;-86
2023/09/11 01:06:51;;;;;;;0.63;0.55;;;;;;;16.57;100.00;99967.22;4991456;28;20090;-86
2023/09/11 01:09:17;;;;;;;1.60;1.33;;;;;;;16.49;100.00;99971.59;4991611;28;20054;-85
2023/09/11 01:11:43;;;;;;;2.63;1.05;;;;;;;16.46;100.00;99978.13;4973938;28;20092;-86
2023/09/11 01:14:09;;;;;;;1.52;1.42;;;;;;;16.50;100.00;99975.94;4991588;28;20037;-86
2023/09/11 01:16:45;;;;;;;0.77;0.77;;;;;;;16.49;100.00;99973.63;4958649;28;20038;-86
2023/09/11 01:19:29;;;;;;;0.55;0.55;;;;;;;16.48;100.00;99970.03;4974122;28;20093;-85
2023/09/11 01:22:10;;;;;;;1.27;1.17;;;;;;;16.45;100.00;99975.84;4991381;28;20053;-86
2023/09/11 01:25:03;;;;;;;1.23;1.13;;;;;;;16.42;100.00;99974.75;4989681;28;20537;-85
2023/09/11 01:28:04;;;;;;;0.73;0.57;;;;;;;16.36;100.00;99971.06;4976798;28;20525;-85
2023/09/11 01:30:29;;;;;;;1.92;1.83;;;;;;;16.33;100.00;99972.03;4991136;28;20042;-85
2023/09/11 01:32:55;;;;;;;1.00;0.93;;;;;;;16.32;100.00;99967.69;4975251;28;20565;-85
2023/09/11 01:35:21;;;;;;;1.52;1.42;;;;;;;16.31;100.00;99958.50;4972260;28;20046;-85
2023/09/11 01:37:46;;;;;;;0.93;0.77;;;;;;;16.30;100.00;99972.97;4986363;28;20054;-85
2023/09/11 01:40:12;;;;;;;0.98;0.95;;;;;;;16.23;100.00;99964.94;4966264;28;20060;-85
2023/09/11 01:42:44;;;;;;;1.02;0.90;;;;;;;16.27;100.00;99973.94;4984692;28;20042;-85
2023/09/11 01:45:14;;;;;;;1.85;0.85;;;;;;;16.21;100.00;99973.06;4979165;28;21493;-85
2023/09/11 01:47:42;;;;;;;1.65;1.55;;;;;;;16.19;100.00;99969.94;4957027;28;20046;-85
2023/09/11 01:50:08;;;;;;;4.90;1.08;;;;;;;16.17;100.00;99975.25;4974153;28;20034;-86
2023/09/11 01:52:35;;;;;;;0.55;0.55;;;;;;;16.14;100.00;99967.81;4969785;28;20503;-85
2023/09/11 01:55:01;;;;;;;1.08;1.00;;;;;;;16.10;100.00;99972.81;4988600;28;20038;-85
2023/09/11 01:57:29;;;;;;;2.42;0.82;;;;;;;16.07;100.00;99974.53;5002754;28;20046;-85
2023/09/11 01:59:55;;;;;;;0.75;0.75;;;;;;;16.04;100.00;99974.72;4975079;28;20129;-86
2023/09/11 02:02:20;;;;;;;0.63;0.38;;;;;;;16.08;100.00;99970.50;4973667;28;20536;-86
2023/09/11 02:04:46;;;;;;;1.10;1.00;;;;;;;16.07;100.00;99968.94;4988930;28;20522;-85
2023/09/11 02:07:12;;;;;;;0.35;0.35;;;;;;;16.07;100.00;99970.97;4988494;28;20042;-85
2023/09/11 02:09:37;;;;;;;0.65;0.65;;;;;;;16.04;100.00;99961.50;4972877;28;20042;-85
2023/09/11 02:12:03;;;;;;;0.70;0.70;;;;;;;16.02;100.00;99966.00;4973632;28;20125;-86
2023/09/11 02:14:28;;;;;;;0.38;0.38;;;;;;;15.99;100.00;99966.97;4989308;28;20113;-85
2023/09/11 02:16:54;;;;;;;1.92;0.68;;;;;;;15.95;100.00;99971.97;4989526;28;20052;-85
2023/09/11 02:19:21;;;;;;;1.05;0.85;;;;;;;15.90;100.00;99947.44;4971127;28;20514;-85
2023/09/11 02:21:46;;;;;;;0.70;0.65;;;;;;;15.88;100.00;99950.72;4957194;28;20081;-85
2023/09/11 02:24:12;;;;;;;1.23;1.17;;;;;;;15.92;100.00;99956.91;4971928;28;20575;-85
2023/09/11 02:26:37;;;;;;;1.15;1.05;;;;;;;15.86;100.00;99944.81;4971758;28;20050;-85
2023/09/11 02:29:03;;;;;;;0.73;0.73;;;;;;;15.86;100.00;99947.63;4972167;28;20049;-85
2023/09/11 02:31:28;;;;;;;0.82;0.82;;;;;;;15.88;100.00;99952.75;4969911;28;20458;-85
2023/09/11 02:33:54;;;;;;;0.82;0.43;;;;;;;15.73;100.00;99945.06;4989257;28;20576;-85
2023/09/11 02:36:20;;;;;;;0.85;0.85;;;;;;;15.73;100.00;99955.50;4981797;28;20042;-85
2023/09/11 02:38:45;;;;;;;0.32;0.32;;;;;;;15.69;100.00;99954.88;4971676;28;20502;-86
2023/09/11 02:41:11;;;;;;;0.45;0.45;;;;;;;15.70;100.00;99957.19;4990340;28;20046;-85
2023/09/11 02:43:37;;;;;;;0.85;0.85;;;;;;;15.61;100.00;99946.03;4973069;28;20053;-85
2023/09/11 02:46:02;;;;;;;0.65;0.65;;;;;;;15.65;100.00;99948.69;4990537;28;20509;-85
2023/09/11 02:48:28;;;;;;;1.13;1.02;;;;;;;15.63;100.00;99945.59;4976718;28;20070;-85
2023/09/11 02:50:53;;;;;;;0.52;0.52;;;;;;;15.53;100.00;99947.63;4970560;28;20502;-85
2023/09/11 02:53:19;;;;;;;1.38;1.27;;;;;;;15.62;100.00;99944.03;4956607;28;20031;-85
2023/09/11 02:55:45;;;;;;;0.70;0.50;;;;;;;15.49;100.00;99943.47;4971670;28;20061;-85
2023/09/11 02:58:11;;;;;;;1.15;0.47;;;;;;;15.54;100.00;99948.41;4973421;28;20498;-85
2023/09/11 03:00:36;;;;;;;3.22;1.35;;;;;;;15.53;100.00;99956.03;4976511;28;20049;-85
2023/09/11 03:03:03;;;;;;;1.35;1.25;;;;;;;15.53;100.00;99953.22;4986306;28;20042;-85
2023/09/11 03:05:32;;;;;;;1.70;1.60;;;;;;;15.48;100.00;99944.69;4986241;28;20137;-85
2023/09/11 03:08:01;;;;;;;0.25;0.25;;;;;;;15.54;100.00;99949.19;4972126;28;20046;-85
2023/09/11 03:10:28;;;;;;;0.55;0.52;;;;;;;15.50;100.00;99943.00;4972473;28;20046;-85
2023/09/11 03:12:55;;;;;;;0.65;0.65;;;;;;;15.47;100.00;99949.50;4966223;28;20038;-85
2023/09/11 03:15:26;;;;;;;0.82;0.80;;;;;;;15.40;100.00;99933.09;4955440;28;20050;-85
2023/09/11 03:17:51;;;;;;;0.77;0.77;;;;;;;15.38;100.00;99927.19;4982977;28;20054;-86
2023/09/11 03:20:18;;;;;;;0.65;0.65;;;;;;;15.41;100.00;99929.81;4977799;28;20042;-86
2023/09/11 03:22:44;;;;;;;2.92;1.75;;;;;;;15.43;100.00;99937.72;4962762;28;20513;-86
2023/09/11 03:25:10;;;;;;;0.45;0.45;;;;;;;15.39;100.00;99942.72;4985463;28;20038;-86
2023/09/11 03:27:35;;;;;;;4.82;1.05;;;;;;;15.33;100.00;99936.97;4985437;28;20042;-86
2023/09/11 03:30:01;;;;;;;0.63;0.63;;;;;;;15.30;100.00;99934.34;4971578;28;20502;-85
2023/09/11 03:32:27;;;;;;;0.50;0.50;;;;;;;15.23;100.00;99945.88;4969567;28;20043;-85
2023/09/11 03:34:55;;;;;;;3.50;1.30;;;;;;;15.23;100.00;99943.09;4982042;28;20043;-86
2023/09/11 03:37:22;;;;;;;1.50;1.40;;;;;;;15.23;100.00;99945.88;4980545;28;20038;-86
2023/09/11 03:39:47;;;;;;;1.15;1.10;;;;;;;15.25;100.00;99943.38;4973623;28;20089;-86
2023/09/11 03:42:13;;;;;;;1.90;0.98;;;;;;;15.23;100.00;99945.88;4988808;28;20498;-85
2023/09/11 03:44:38;;;;;;;1.77;1.27;;;;;;;15.20;100.00;99941.25;4989386;28;20049;-85
2023/09/11 03:47:04;;;;;;;1.48;1.25;;;;;;;15.17;100.00;99953.34;4989285;28;20065;-86
2023/09/11 03:49:30;;;;;;;0.90;0.90;;;;;;;15.10;100.00;99937.69;4972070;28;20042;-85
2023/09/11 03:51:55;;;;;;;2.15;1.35;;;;;;;15.08;100.00;99945.78;4969403;28;20062;-86
2023/09/11 03:54:21;;;;;;;2.72;1.00;;;;;;;15.11;100.00;99949.66;4989554;28;20065;-85
2023/09/11 03:56:46;;;;;;;0.57;0.57;;;;;;;15.05;100.00;99946.69;4987702;28;20038;-85
2023/09/11 03:59:13;;;;;;;0.47;0.47;;;;;;;15.14;100.00;99948.69;4971427;28;20050;-86
2023/09/11 04:01:39;;;;;;;2.45;1.75;;;;;;;15.12;100.00;99951.19;4971167;28;20073;-85
2023/09/11 04:04:05;;;;;;;0.40;0.40;;;;;;;15.08;100.00;99945.00;4969499;28;20050;-85
2023/09/11 04:06:31;;;;;;;0.70;0.70;;;;;;;15.08;100.00;99956.19;4970941;28;20030;-85
2023/09/11 04:08:56;;;;;;;0.85;0.55;;;;;;;15.05;100.00;99957.09;4972343;28;20038;-85
2023/09/11 04:11:22;;;;;;;0.85;0.82;;;;;;;14.90;100.00;99940.22;4969326;28;20129;-85
2023/09/11 04:13:49;;;;;;;0.75;0.75;;;;;;;15.03;100.00;99945.63;4974428;28;20072;-85
2023/09/11 04:16:15;;;;;;;0.75;0.57;;;;;;;15.02;100.00;99955.25;4958488;28;20050;-86
2023/09/11 04:18:44;;;;;;;0.17;0.17;;;;;;;15.02;100.00;99952.47;4968025;28;20038;-86
2023/09/11 04:21:10;;;;;;;1.08;0.93;;;;;;;15.09;100.00;99943.75;4965739;28;20045;-85
2023/09/11 04:23:36;;;;;;;0.88;0.82;;;;;;;15.11;100.00;99944.84;4980205;28;20034;-85
2023/09/11 04:26:02;;;;;;;1.70;1.42;;;;;;;15.17;100.00;99936.56;4976581;28;20380;-85
2023/09/11 04:28:28;;;;;;;1.20;1.10;;;;;;;15.23;100.00;99943.09;4972782;28;20100;-88
2023/09/11 04:30:53;;;;;;;0.55;0.55;;;;;;;15.25;100.00;99927.38;4970390;28;20050;-85
2023/09/11 04:33:20;;;;;;;1.52;1.00;;;;;;;15.24;100.00;99922.28;4953877;28;20050;-85
2023/09/11 04:35:46;;;;;;;1.27;1.17;;;;;;;15.19;100.00;99922.91;4965100;28;20039;-85
2023/09/11 04:38:12;;;;;;;1.50;1.42;;;;;;;15.27;100.00;99924.13;4957637;28;20039;-85
2023/09/11 04:40:38;;;;;;;3.30;1.90;;;;;;;15.23;100.00;99929.13;4975272;28;20050;-86
2023/09/11 04:43:04;;;;;;;0.80;0.80;;;;;;;15.31;100.00;99924.75;4953409;28;20062;-87
2023/09/11 04:45:30;;;;;;;1.08;1.08;;;;;;;15.26;100.00;99922.56;4976851;28;20418;-86
2023/09/11 04:47:56;;;;;;;0.60;0.55;;;;;;;15.32;100.00;99931.88;4939455;28;20053;-86
2023/09/11 04:50:21;;;;;;;1.88;1.58;;;;;;;15.32;100.00;99927.06;4961218;28;20049;-86
2023/09/11 04:52:47;;;;;;;1.92;1.65;;;;;;;15.35;100.00;99925.34;4985428;28;20041;-86
2023/09/11 04:55:12;;;;;;;2.03;1.88;;;;;;;15.37;100.00;99932.00;4963664;28;20034;-87
2023/09/11 04:57:40;;;;;;;0.57;0.57;;;;;;;15.41;100.00;99935.41;4967322;28;20046;-88
2023/09/11 05:00:09;;;;;;;2.58;1.52;;;;;;;15.47;100.00;99938.34;4967827;28;20049;-88
2023/09/11 05:02:38;;;;;;;1.52;1.23;;;;;;;15.40;100.00;99911.50;4940492;28;20038;-88
2023/09/11 05:05:04;;;;;;;2.33;1.90;;;;;;;15.56;100.00;99923.56;4967454;28;20065;-87
2023/09/11 05:07:30;;;;;;;0.77;0.77;;;;;;;15.71;100.00;99930.78;4948151;28;20526;-87
2023/09/11 05:09:55;;;;;;;2.40;1.40;;;;;;;15.78;100.00;99924.84;4950226;28;20057;-88
2023/09/11 05:12:21;;;;;;;1.33;1.13;;;;;;;15.57;100.00;99892.31;4969566;28;20039;-88
2023/09/11 05:14:47;;;;;;;0.50;0.50;;;;;;;15.84;100.00;99922.94;4968488;28;20417;-87
2023/09/11 05:17:13;;;;;;;2.28;1.15;;;;;;;15.92;100.00;99925.38;4954889;28;20121;-87
2023/09/11 05:19:39;;;;;;;1.58;1.48;;;;;;;15.82;100.00;99908.66;4972428;28;20149;-88
2023/09/11 05:22:04;;;;;;;0.80;0.80;;;;;;;15.87;100.00;99896.03;4972536;28;20684;-87
2023/09/11 05:24:32;;;;;;;2.13;1.15;;;;;;;16.09;100.00;99926.50;4991170;28;20046;-86
2023/09/11 05:26:57;;;;;;;2.90;2.40;;;;;;;16.17;100.00;99922.88;4979053;28;20395;-88
2023/09/11 05:29:23;;;;;;;0.85;0.85;;;;;;;16.37;100.00;99936.25;5002592;28;20054;-87
2023/09/11 05:31:49;;;;;;;1.15;1.02;;;;;;;16.48;100.00;99936.44;4970850;28;20084;-90
2023/09/11 05:34:14;;;;;;;6.45;0.88;;;;;;;16.58;100.00;99926.72;4988312;28;20042;-87
2023/09/11 05:36:40;;;;;;;1.05;1.05;;;;;;;16.74;100.00;99937.47;4960915;28;20647;-92
2023/09/11 05:39:05;;;;;;;1.25;0.95;;;;;;;16.86;100.00;99951.69;4974135;28;20651;-93
2023/09/11 05:41:31;;;;;;;2.53;2.08;;;;;;;16.85;100.00;99919.31;4958520;28;20471;-92
2023/09/11 05:43:56;;;;;;;0.65;0.60;;;;;;;17.06;100.00;99929.38;4971986;28;20047;-92
2023/09/11 05:46:23;;;;;;;3.13;1.80;;;;;;;17.06;100.00;99913.34;4957425;28;20110;-91
2023/09/11 05:48:49;;;;;;;0.65;0.65;;;;;;;17.47;100.00;99947.13;4942017;28;20048;-92
2023/09/11 05:51:15;;;;;;;1.33;1.02;;;;;;;17.52;100.00;99932.38;4973021;28;20160;-93
2023/09/11 05:53:40;;;;;;;1.55;1.45;;;;;;;17.79;100.00;99934.09;4958178;28;20557;-92
2023/09/11 05:56:06;;;;;;;1.90;1.70;;;;;;;17.99;100.00;99932.09;4974406;28;20065;-93
2023/09/11 05:58:32;;;;;;;1.17;1.13;;;;;;;18.21;100.00;99939.22;4942334;28;20130;-92
2023/09/11 06:00:57;;;;;;;2.00;1.73;;;;;;;18.39;100.00;99936.91;4958969;28;20034;-93
2023/09/11 06:03:23;;;;;;;1.67;1.50;;;;;;;18.64;100.00;99941.06;4957441;28;20050;-93
2023/09/11 06:05:48;;;;;;;1.35;1.25;;;;;;;18.86;100.00;99943.28;4973872;28;20453;-94
2023/09/11 06:08:15;;;;;;;1.00;0.95;;;;;;;19.13;100.00;99962.47;4974389;28;20057;-94
2023/09/11 06:10:40;;;;;;;1.58;1.48;;;;;;;19.21;100.00;99943.88;4975576;28;20478;-94
2023/09/11 06:13:06;;;;;;;3.22;1.85;;;;;;;19.54;100.00;99963.06;4975009;28;20122;-94
2023/09/11 06:15:31;;;;;;;3.30;1.75;;;;;;;19.63;100.00;99956.50;4969365;28;20034;-94
2023/09/11 06:17:57;;;;;;;0.98;0.93;;;;;;;19.76;100.00;99932.28;4973671;28;20510;-93
2023/09/11 06:20:23;;;;;;;2.42;1.00;;;;;;;20.18;100.00;99964.50;4958336;28;20507;-93
2023/09/11 06:22:48;;;;;;;2.40;2.08;;;;;;;20.24;100.00;99945.56;4941987;28;20121;-94
2023/09/11 06:25:15;;;;;;;1.13;1.08;;;;;;;20.54;100.00;99960.06;4957678;28;20050;-94
2023/09/11 06:27:40;;;;;;;1.13;0.88;;;;;;;20.72;100.00;99953.94;4957854;28;20046;-93
2023/09/11 06:30:06;;;;;;;1.85;1.20;;;;;;;20.80;100.00;99952.94;4982005;28;20533;-93
2023/09/11 06:32:33;;;;;;;2.22;1.20;;;;;;;20.91;100.00;99943.72;4974209;28;20069;-92
2023/09/11 06:34:59;;;;;;;1.40;1.17;;;;;;;21.29;100.00;99957.13;4972652;28;20108;-93
2023/09/11 06:37:24;;;;;;;1.63;1.52;;;;;;;21.45;100.00;99949.16;4958535;28;20562;-92
2023/09/11 06:39:50;;;;;;;0.85;0.85;;;;;;;21.62;100.00;99947.88;4946332;28;20490;-93
2023/09/11 06:42:20;;;;;;;1.02;0.90;;;;;;;21.92;100.00;99962.19;4973948;28;20088;-93
2023/09/11 06:44:46;;;;;;;0.65;0.65;;;;;;;22.15;100.00;99960.88;4974351;28;20050;-92
2023/09/11 06:47:12;;;;;;;1.83;0.93;;;;;;;22.16;100.00;99953.16;4991047;28;20046;-93
2023/09/11 06:49:38;;;;;;;2.15;1.77;;;;;;;22.42;100.00;99964.09;4971708;28;20053;-94
2023/09/11 06:52:03;;;;;;;0.98;0.95;;;;;;;22.63;100.00;99951.16;4948377;28;20410;-93
2023/09/11 06:54:29;;;;;;;1.40;1.30;;;;;;;22.83;100.00;99947.19;4988762;28;20104;-92
2023/09/11 06:56:55;;;;;;;1.08;0.90;;;;;;;23.11;100.00;99951.38;4962051;28;20146;-94
2023/09/11 06:59:20;;;;;;;0.40;0.40;;;;;;;23.16;100.00;99942.09;4973619;28;20042;-95
2023/09/11 07:01:46;;;;;;;1.75;1.40;;;;;;;23.46;100.00;99959.09;4957771;28;20502;-94
2023/09/11 07:04:11;;;;;;;2.10;1.90;;;;;;;23.74;100.00;99953.16;4969605;28;20493;-94
2023/09/11 07:06:38;;;;;;;1.27;1.17;;;;;;;23.89;100.00;99950.69;4973634;28;20042;-94
2023/09/11 07:09:05;;;;;;;1.10;1.00;;;;;;;24.11;100.00;99950.44;4957335;28;20050;-95
2023/09/11 07:11:31;;;;;;;1.25;1.15;;;;;;;23.98;100.00;99941.81;4981885;28;20104;-95
2023/09/11 07:13:56;;;;;;;0.95;0.95;;;;;;;24.04;100.00;99931.19;4971346;28;20529;-95
2023/09/11 07:16:22;;;;;;;1.58;1.25;;;;;;;24.39;100.00;99947.28;4941684;28;20026;-94
2023/09/11 07:18:48;;;;;;;0.95;0.95;;;;;;;24.60;100.00;99956.81;4940979;28;20174;-95
2023/09/11 07:21:14;;;;;;;0.80;0.70;;;;;;;24.62;100.00;99956.28;4956893;28;20034;-94
2023/09/11 07:23:39;;;;;;;2.08;0.90;;;;;;;24.83;100.00;99960.09;4970223;28;20054;-95
2023/09/11 07:26:05;;;;;;;2.20;1.50;;;;;;;24.92;100.00;99959.72;4981760;28;20042;-95
2023/09/11 07:28:33;;;;;;;1.00;0.90;;;;;;;25.29;100.00;99947.53;4973036;28;20549;-94
2023/09/11 07:30:59;;;;;;;1.42;1.17;;;;;;;25.33;100.00;99947.22;4949512;28;20045;-93
2023/09/11 07:33:24;;;;;;;0.50;0.50;;;;;;;25.46;100.00;99950.88;4953164;28;20030;-94
2023/09/11 07:35:50;;;;;;;1.50;0.80;;;;;;;25.23;100.00;99943.28;4957565;28;20499;-94
2023/09/11 07:38:16;;;;;;;1.60;1.17;;;;;;;25.50;100.00;99942.03;4958737;28;20061;-94
2023/09/11 07:40:42;;;;;;;1.17;1.08;;;;;;;25.62;100.00;99954.75;4957802;28;20110;-94
2023/09/11 07:43:08;;;;;;;1.30;1.10;;;;;;;26.04;98.62;99957.88;5005018;28;20058;-95
2023/09/11 07:45:34;;;;;;;2.40;1.67;;;;;;;26.27;93.94;99956.13;4981923;28;20511;-96
2023/09/11 07:48:00;;;;;;;1.33;1.23;;;;;;;26.30;91.40;99963.56;4959458;28;20042;-95
2023/09/11 07:50:25;;;;;;;1.48;1.38;;;;;;;26.34;90.80;99935.56;4972961;28;20053;-93
2023/09/11 07:52:51;;;;;;;1.17;1.05;;;;;;;26.25;88.36;99938.84;4956729;28;20241;-95
2023/09/11 07:55:17;;;;;;;1.50;1.25;;;;;;;26.47;86.58;99938.38;4957337;28;20042;-95
2023/09/11 07:57:43;;;;;;;2.17;1.23;;;;;;;26.61;88.11;99951.25;4974678;28;20050;-94
2023/09/11 08:00:09;;;;;;;1.65;1.25;;;;;;;26.71;85.71;99945.88;4989354;28;20034;-95
2023/09/11 08:02:36;;;;;;;0.85;0.85;;;;;;;27.05;86.13;99951.59;4956860;28;20529;-94
2023/09/11 08:05:02;;;;;;;0.77;0.77;;;;;;;27.04;83.19;99950.81;4940345;28;20407;-95
2023/09/11 08:07:28;;;;;;;1.75;1.60;;;;;;;27.26;82.72;99932.41;4975611;28;20045;-95
2023/09/11 08:09:54;;;;;;;3.70;1.77;;;;;;;27.42;81.65;99944.72;4976451;28;20125;-95
2023/09/11 08:12:20;;;;;;;1.77;1.50;;;;;;;27.57;80.02;99948.50;4989810;28;20522;-96
2023/09/11 08:14:45;;;;;;;1.20;1.10;;;;;;;27.77;75.67;99941.22;4976546;28;20039;-92
2023/09/11 08:17:11;;;;;;;1.45;1.35;;;;;;;27.42;78.11;99951.16;4977922;28;20525;-94
2023/09/11 08:19:37;;;;;;;2.20;1.90;;;;;;;27.37;77.57;99949.25;4992307;28;20042;-95
2023/09/11 08:22:03;;;;;;;15.70;3.22;;;;;;;27.19;76.91;99950.19;4976160;28;20050;-95
2023/09/11 08:24:29;;;;;;;3.08;1.75;;;;;;;27.45;76.27;99944.38;4969001;28;20065;-95
2023/09/11 08:26:54;;;;;;;1.00;0.90;;;;;;;27.65;72.97;99940.78;4958033;28;20057;-95
2023/09/11 08:29:20;;;;;;;2.20;0.93;;;;;;;28.11;72.49;99956.09;4969014;28;20454;-95
2023/09/11 08:31:46;;;;;;;2.35;1.40;;;;;;;28.30;69.53;99953.00;4973270;28;20137;-94
2023/09/11 08:34:12;;;;;;;1.67;1.10;;;;;;;28.03;67.03;99934.53;4975745;28;20104;-96
2023/09/11 08:36:41;;;;;;;1.27;1.00;;;;;;;28.37;67.37;99940.84;4975037;28;20041;-96
2023/09/11 08:39:10;;;;;;;1.17;1.08;;;;;;;28.83;64.73;99946.75;4948279;28;20049;-95
2023/09/11 08:41:36;;;;;;;1.90;1.35;;;;;;;28.83;59.35;99941.06;4992924;28;20204;-95
2023/09/11 08:44:01;;;;;;;2.20;0.95;;;;;;;28.94;60.48;99935.00;4952881;28;20053;-96
2023/09/11 08:46:31;;;;;;;0.90;0.88;;;;;;;28.60;62.06;99953.13;4976849;28;20042;-96
2023/09/11 08:48:59;;;;;;;1.80;1.38;;;;;;;28.70;64.16;99954.16;4969176;28;20046;-96
2023/09/11 08:51:33;;;;;;;2.33;1.75;;;;;;;28.76;60.50;99944.63;4960162;28;20050;-96
2023/09/11 08:54:01;;;;;;;2.05;1.70;;;;;;;28.83;60.09;99938.97;4992008;28;20129;-96
2023/09/11 08:56:27;;;;;;;1.27;1.17;;;;;;;29.19;59.11;99944.56;4944456;28;20474;-94
2023/09/11 08:58:53;;;;;;;1.40;1.30;;;;;;;29.04;58.28;99933.09;4975716;28;20046;-95
2023/09/11 09:01:20;;;;;;;0.75;0.75;;;;;;;28.92;60.34;99934.78;4954585;28;20038;-95
2023/09/11 09:03:46;;;;;;;1.35;1.13;;;;;;;29.25;59.64;99952.94;4953074;28;20242;-96
2023/09/11 09:06:12;;;;;;;0.95;0.82;;;;;;;29.07;56.25;99949.09;4991347;28;20188;-96
2023/09/11 09:08:38;;;;;;;0.93;0.75;;;;;;;28.88;53.63;99949.44;4964295;28;20058;-96
2023/09/11 09:11:03;;;;;;;1.85;1.30;;;;;;;29.15;49.12;99944.19;4945350;28;20117;-95
2023/09/11 09:13:34;;;;;;;1.13;1.02;;;;;;;29.42;51.46;99933.16;4986886;28;20058;-96
2023/09/11 09:16:00;;;;;;;1.45;1.23;;;;;;;29.62;51.66;99932.22;4975693;28;20050;-95
2023/09/11 09:18:26;;;;;;;2.58;1.20;;;;;;;30.03;49.85;99916.75;4987141;28;20042;-95
2023/09/11 09:20:51;;;;;;;2.08;1.08;;;;;;;29.90;43.56;99940.59;4943663;28;20606;-96
2023/09/11 09:23:17;;;;;;;2.13;1.63;;;;;;;29.46;47.71;99934.31;4957889;28;20094;-96
2023/09/11 09:25:43;;;;;;;1.02;0.88;;;;;;;29.63;48.34;99930.88;4971374;28;20384;-96
2023/09/11 09:28:08;;;;;;;0.85;0.85;;;;;;;29.91;48.84;99932.78;4945989;29;20487;-93
2023/09/11 09:30:35;;;;;;;4.55;1.83;;;;;;;30.37;48.65;99934.16;4921309;29;20051;-96
2023/09/11 09:33:02;;;;;;;1.63;1.30;;;;;;;30.82;47.76;99932.44;4952601;29;20040;-93
2023/09/11 09:35:32;;;;;;;0.98;0.70;;;;;;;30.63;44.94;99932.19;4933594;29;20512;-94
2023/09/11 09:37:58;;;;;;;1.02;1.02;;;;;;;30.96;44.47;99942.31;4949816;29;20143;-94
2023/09/11 09:40:42;;;;;;;0.70;0.70;;;;;;;30.80;44.83;99923.69;4943139;28;20048;-94
2023/09/11 09:43:15;;;;;;;1.90;1.10;;;;;;;30.48;44.70;99918.72;4952776;29;20147;-94
2023/09/11 09:45:42;;;;;;;2.35;1.58;;;;;;;30.24;45.54;99914.41;4952454;29;20055;-94
2023/09/11 09:48:11;;;;;;;1.95;1.75;;;;;;;30.82;45.96;99929.59;4935947;29;20046;-94
2023/09/11 09:50:51;;;;;;;0.77;0.77;;;;;;;31.16;45.13;99920.44;4933460;29;20158;-93
2023/09/11 09:53:31;;;;;;;1.30;1.20;;;;;;;30.64;44.72;99925.13;4936526;29;20078;-93
2023/09/11 09:56:04;;;;;;;1.30;1.20;;;;;;;30.69;45.32;99924.16;4952210;29;20090;-95
2023/09/11 09:58:33;;;;;;;4.05;1.15;;;;;;;30.83;45.65;99908.97;4952468;29;20078;-92
2023/09/11 10:01:00;;;;;;;1.48;1.38;;;;;;;30.61;44.73;99909.13;4951903;28;20050;-94
2023/09/11 10:03:27;;;;;;;0.50;0.50;;;;;;;30.81;44.75;99913.78;4935714;29;20467;-93
2023/09/11 10:05:52;;;;;;;1.77;1.15;;;;;;;30.59;45.50;99903.19;4935615;29;20074;-94
2023/09/11 10:08:18;;;;;;;1.08;0.98;;;;;;;30.65;45.38;99903.75;4920462;29;20125;-93
2023/09/11 10:10:44;;;;;;;1.20;1.10;;;;;;;30.72;46.12;99895.13;4952925;29;20031;-93
2023/09/11 10:13:12;;;;;;;1.38;1.27;;;;;;;30.79;47.42;99893.53;4935626;29;20100;-91
2023/09/11 10:15:39;;;;;;;3.28;2.15;;;;;;;30.77;47.25;99893.38;4948242;28;20046;-90
2023/09/11 10:18:05;;;;;;;1.27;1.05;;;;;;;30.60;46.88;99876.84;4946775;29;20703;-90
2023/09/11 10:20:31;;;;;;;1.85;1.00;;;;;;;30.70;48.41;99888.44;4952890;29;20039;-91
2023/09/11 10:22:59;;;;;;;1.70;1.13;;;;;;;30.82;47.53;99873.09;4968876;28;20039;-92
2023/09/11 10:25:28;;;;;;;2.05;1.02;;;;;;;31.30;47.39;99873.69;4952964;28;20484;-91
2023/09/11 10:28:16;;;;;;;2.45;2.10;;;;;;;31.45;44.88;99875.69;4951016;28;20049;-90
2023/09/11 10:30:51;;;;;;;1.63;1.52;;;;;;;31.50;42.19;99865.34;4945846;28;20176;-89
2023/09/11 10:33:21;;;;;;;2.05;1.52;;;;;;;30.99;43.73;99860.97;4950903;29;20117;-90
2023/09/11 10:35:48;;;;;;;0.90;0.90;;;;;;;31.06;44.85;99862.28;4946093;28;20047;-89
2023/09/11 10:38:15;;;;;;;2.50;1.35;;;;;;;30.85;41.18;99862.59;4949415;29;20447;-90
2023/09/11 10:40:42;;;;;;;1.38;1.27;;;;;;;31.35;41.38;99866.97;4933676;28;20039;-90
2023/09/11 10:43:08;;;;;;;0.60;0.60;;;;;;;31.85;40.74;99866.91;4932977;29;20039;-89
2023/09/11 10:45:34;;;;;;;1.50;1.40;;;;;;;32.33;39.35;99858.69;4937486;29;20537;-90
2023/09/11 10:48:00;;;;;;;3.25;1.27;;;;;;;32.07;38.62;99857.25;4963908;28;20574;-89
2023/09/11 10:50:41;;;;;;;0.65;0.65;;;;;;;32.05;39.55;99854.25;4960890;28;20040;-89
2023/09/11 10:53:07;;;;;;;1.13;1.02;;;;;;;32.03;39.76;99856.94;4948894;28;20051;-89
2023/09/11 10:55:34;;;;;;;0.88;0.88;;;;;;;32.00;40.26;99861.00;4933767;29;20043;-89
2023/09/11 10:58:03;;;;;;;0.75;0.75;;;;;;;31.93;39.72;99847.50;4948075;28;20047;-90
2023/09/11 11:00:28;;;;;;;1.38;1.17;;;;;;;31.66;39.79;99852.41;4949168;29;20495;-92
2023/09/11 11:02:57;;;;;;;1.67;1.58;;;;;;;31.40;39.87;99854.53;4931794;29;20114;-91
2023/09/11 11:05:23;;;;;;;2.38;1.52;;;;;;;31.35;39.17;99821.13;4917039;29;20045;-91
2023/09/11 11:07:50;;;;;;;1.05;0.93;;;;;;;31.34;40.21;99851.13;4916819;29;20031;-91
2023/09/11 11:10:16;;;;;;;1.45;1.02;;;;;;;31.82;39.86;99842.28;4933100;29;20054;-91
2023/09/11 11:12:44;;;;;;;1.02;0.93;;;;;;;31.99;38.46;99842.25;4949363;28;20047;-92
2023/09/11 11:15:22;;;;;;;1.27;1.08;;;;;;;31.96;38.98;99846.31;4949306;29;20415;-91
2023/09/11 11:18:13;;;;;;;1.13;1.02;;;;;;;32.11;38.87;99842.53;4949825;29;20098;-90
2023/09/11 11:21:07;;;;;;;5.13;2.03;;;;;;;32.39;38.63;99839.13;4949782;28;20139;-91
2023/09/11 11:23:34;;;;;;;7.97;1.35;;;;;;;32.00;38.53;99829.44;4950278;29;20055;-91
2023/09/11 11:26:06;;;;;;;1.52;0.93;;;;;;;32.41;37.23;99838.50;4950033;28;20055;-91